Quinter, Kansas
Current Conditions -  °F | °C
As of 1:53 AM on Saturday 20 Dec 2014 (Local Time) from KHLC Reporting Station
Clear Clear  
Wind Chill: 24°   Ceiling: Unl
Heat Index: 30°   Visibility: 10mi
Dew Point: 26°   Wind: 6mph
Humidity: 85%   Direction: 240°WSW
Pressure: 30.05"   Gusts: NA
Location:  39.07°N, 100.23°W
Report Text: KHLC 200753Z AUTO 24005KT 10SM CLR M01/M03 A3005 RMK AO2 SLP187 T10111033
Loading
Personal Weather Stations






























Interactive Weather Map New forecast layout! Learn more

10-Day Weather Forecast

Advertisements
Track Severe Weather on mobile